sensor_id;sensor_type;location;lat;lon;timestamp;pressure;altitude;pressure_sealevel;temperature
56286;BMP180;42191;47.562;9.686;2023-05-15T00:01:29;96503.00;;;16.90
56286;BMP180;42191;47.562;9.686;2023-05-15T00:03:56;96505.00;;;16.90
56286;BMP180;42191;47.562;9.686;2023-05-15T00:06:22;96500.00;;;16.80
56286;BMP180;42191;47.562;9.686;2023-05-15T00:08:48;96500.00;;;16.80
56286;BMP180;42191;47.562;9.686;2023-05-15T00:11:15;96496.00;;;16.80
56286;BMP180;42191;47.562;9.686;2023-05-15T00:13:41;96503.00;;;16.70
56286;BMP180;42191;47.562;9.686;2023-05-15T00:16:07;96494.00;;;16.70
56286;BMP180;42191;47.562;9.686;2023-05-15T00:18:34;96489.00;;;16.70
56286;BMP180;42191;47.562;9.686;2023-05-15T00:21:00;96496.00;;;16.70
56286;BMP180;42191;47.562;9.686;2023-05-15T00:23:26;96497.00;;;16.70
56286;BMP180;42191;47.562;9.686;2023-05-15T00:25:52;96498.00;;;16.70
56286;BMP180;42191;47.562;9.686;2023-05-15T00:28:19;96498.00;;;16.70
56286;BMP180;42191;47.562;9.686;2023-05-15T00:30:45;96501.00;;;16.70
56286;BMP180;42191;47.562;9.686;2023-05-15T00:33:11;96493.00;;;16.60
56286;BMP180;42191;47.562;9.686;2023-05-15T00:35:37;96492.00;;;16.60
56286;BMP180;42191;47.562;9.686;2023-05-15T00:38:03;96495.00;;;16.60
56286;BMP180;42191;47.562;9.686;2023-05-15T00:40:30;96496.00;;;16.60
56286;BMP180;42191;47.562;9.686;2023-05-15T00:42:57;96498.00;;;16.60
56286;BMP180;42191;47.562;9.686;2023-05-15T00:45:26;96492.00;;;16.50
56286;BMP180;42191;47.562;9.686;2023-05-15T00:47:54;96492.00;;;16.50
56286;BMP180;42191;47.562;9.686;2023-05-15T00:50:21;96492.00;;;16.50
56286;BMP180;42191;47.562;9.686;2023-05-15T00:52:48;96485.00;;;16.50
56286;BMP180;42191;47.562;9.686;2023-05-15T00:55:15;96488.00;;;16.50
56286;BMP180;42191;47.562;9.686;2023-05-15T00:57:42;96492.00;;;16.50
56286;BMP180;42191;47.562;9.686;2023-05-15T01:00:09;96480.00;;;16.40
56286;BMP180;42191;47.562;9.686;2023-05-15T01:02:38;96489.00;;;16.40
56286;BMP180;42191;47.562;9.686;2023-05-15T01:05:05;96486.00;;;16.40
56286;BMP180;42191;47.562;9.686;2023-05-15T01:07:36;96497.00;;;16.40
56286;BMP180;42191;47.562;9.686;2023-05-15T01:10:06;96492.00;;;16.40
56286;BMP180;42191;47.562;9.686;2023-05-15T01:12:34;96490.00;;;16.40
56286;BMP180;42191;47.562;9.686;2023-05-15T01:15:00;96488.00;;;16.40
56286;BMP180;42191;47.562;9.686;2023-05-15T01:17:26;96490.00;;;16.40
56286;BMP180;42191;47.562;9.686;2023-05-15T01:19:53;96486.00;;;16.40
56286;BMP180;42191;47.562;9.686;2023-05-15T01:22:46;96487.00;;;16.40
56286;BMP180;42191;47.562;9.686;2023-05-15T01:28:07;96486.00;;;16.40
56286;BMP180;42191;47.562;9.686;2023-05-15T01:30:37;96491.00;;;16.40
56286;BMP180;42191;47.562;9.686;2023-05-15T01:33:20;96479.00;;;16.40
56286;BMP180;42191;47.562;9.686;2023-05-15T01:36:06;96486.00;;;16.40
56286;BMP180;42191;47.562;9.686;2023-05-15T01:38:52;96484.00;;;16.40
56286;BMP180;42191;47.562;9.686;2023-05-15T01:41:31;96490.00;;;16.40
56286;BMP180;42191;47.562;9.686;2023-05-15T01:44:25;96490.00;;;16.40
56286;BMP180;42191;47.562;9.686;2023-05-15T01:46:54;96488.00;;;16.40
56286;BMP180;42191;47.562;9.686;2023-05-15T01:49:25;96487.00;;;16.40
56286;BMP180;42191;47.562;9.686;2023-05-15T01:52:32;96485.00;;;16.40
56286;BMP180;42191;47.562;9.686;2023-05-15T01:55:03;96475.00;;;16.40
56286;BMP180;42191;47.562;9.686;2023-05-15T01:57:31;96484.00;;;16.40
56286;BMP180;42191;47.562;9.686;2023-05-15T01:59:59;96488.00;;;16.40
56286;BMP180;42191;47.562;9.686;2023-05-15T02:02:27;96483.00;;;16.40
56286;BMP180;42191;47.562;9.686;2023-05-15T02:04:55;96486.00;;;16.40
56286;BMP180;42191;47.562;9.686;2023-05-15T02:07:22;96476.00;;;16.40
56286;BMP180;42191;47.562;9.686;2023-05-15T02:09:52;96476.00;;;16.40
56286;BMP180;42191;47.562;9.686;2023-05-15T02:12:20;96479.00;;;16.40
56286;BMP180;42191;47.562;9.686;2023-05-15T02:14:48;96480.00;;;16.40
56286;BMP180;42191;47.562;9.686;2023-05-15T02:17:15;96473.00;;;16.40
56286;BMP180;42191;47.562;9.686;2023-05-15T02:19:41;96469.00;;;16.50
56286;BMP180;42191;47.562;9.686;2023-05-15T02:22:07;96475.00;;;16.50
56286;BMP180;42191;47.562;9.686;2023-05-15T02:24:33;96469.00;;;16.50
56286;BMP180;42191;47.562;9.686;2023-05-15T02:29:51;96472.00;;;16.50
56286;BMP180;42191;47.562;9.686;2023-05-15T02:37:38;96456.00;;;16.40
56286;BMP180;42191;47.562;9.686;2023-05-15T02:40:09;96473.00;;;16.40
56286;BMP180;42191;47.562;9.686;2023-05-15T02:42:36;96457.00;;;16.40
56286;BMP180;42191;47.562;9.686;2023-05-15T02:45:03;96459.00;;;16.40
56286;BMP180;42191;47.562;9.686;2023-05-15T02:47:30;96459.00;;;16.40
56286;BMP180;42191;47.562;9.686;2023-05-15T02:49:58;96461.00;;;16.40
56286;BMP180;42191;47.562;9.686;2023-05-15T02:52:24;96452.00;;;16.40
56286;BMP180;42191;47.562;9.686;2023-05-15T02:54:50;96454.00;;;16.40
56286;BMP180;42191;47.562;9.686;2023-05-15T02:57:17;96455.00;;;16.30
56286;BMP180;42191;47.562;9.686;2023-05-15T02:59:43;96463.00;;;16.30
56286;BMP180;42191;47.562;9.686;2023-05-15T03:02:09;96458.00;;;16.30
56286;BMP180;42191;47.562;9.686;2023-05-15T03:04:35;96458.00;;;16.30
56286;BMP180;42191;47.562;9.686;2023-05-15T03:07:01;96458.00;;;16.30
56286;BMP180;42191;47.562;9.686;2023-05-15T03:09:27;96458.00;;;16.30
56286;BMP180;42191;47.562;9.686;2023-05-15T03:11:53;96468.00;;;16.30
56286;BMP180;42191;47.562;9.686;2023-05-15T03:14:20;96462.00;;;16.20
56286;BMP180;42191;47.562;9.686;2023-05-15T03:16:46;96467.00;;;16.20
56286;BMP180;42191;47.562;9.686;2023-05-15T03:19:12;96465.00;;;16.20
56286;BMP180;42191;47.562;9.686;2023-05-15T03:21:38;96463.00;;;16.20
56286;BMP180;42191;47.562;9.686;2023-05-15T03:24:04;96466.00;;;16.20
56286;BMP180;42191;47.562;9.686;2023-05-15T03:26:30;96468.00;;;16.20
56286;BMP180;42191;47.562;9.686;2023-05-15T03:28:57;96462.00;;;16.20
56286;BMP180;42191;47.562;9.686;2023-05-15T03:31:23;96468.00;;;16.20
56286;BMP180;42191;47.562;9.686;2023-05-15T03:33:49;96461.00;;;16.20
56286;BMP180;42191;47.562;9.686;2023-05-15T03:36:16;96471.00;;;16.30
56286;BMP180;42191;47.562;9.686;2023-05-15T03:38:42;96470.00;;;16.30
56286;BMP180;42191;47.562;9.686;2023-05-15T03:41:09;96463.00;;;16.30
56286;BMP180;42191;47.562;9.686;2023-05-15T03:43:35;96464.00;;;16.30
56286;BMP180;42191;47.562;9.686;2023-05-15T03:46:01;96455.00;;;16.30
56286;BMP180;42191;47.562;9.686;2023-05-15T03:48:27;96456.00;;;16.30
56286;BMP180;42191;47.562;9.686;2023-05-15T03:50:53;96455.00;;;16.40
56286;BMP180;42191;47.562;9.686;2023-05-15T03:53:20;96466.00;;;16.40
56286;BMP180;42191;47.562;9.686;2023-05-15T03:55:46;96463.00;;;16.40
56286;BMP180;42191;47.562;9.686;2023-05-15T03:58:12;96462.00;;;16.40
56286;BMP180;42191;47.562;9.686;2023-05-15T04:00:38;96461.00;;;16.40
56286;BMP180;42191;47.562;9.686;2023-05-15T04:03:04;96463.00;;;16.40
56286;BMP180;42191;47.562;9.686;2023-05-15T04:05:30;96457.00;;;16.40
56286;BMP180;42191;47.562;9.686;2023-05-15T04:07:57;96470.00;;;16.40
56286;BMP180;42191;47.562;9.686;2023-05-15T04:10:23;96472.00;;;16.40
56286;BMP180;42191;47.562;9.686;2023-05-15T04:12:49;96471.00;;;16.50
56286;BMP180;42191;47.562;9.686;2023-05-15T04:15:21;96469.00;;;16.50
56286;BMP180;42191;47.562;9.686;2023-05-15T04:17:50;96467.00;;;16.40
56286;BMP180;42191;47.562;9.686;2023-05-15T04:20:18;96473.00;;;16.40
56286;BMP180;42191;47.562;9.686;2023-05-15T04:22:45;96480.00;;;16.40
56286;BMP180;42191;47.562;9.686;2023-05-15T04:25:12;96488.00;;;16.50
56286;BMP180;42191;47.562;9.686;2023-05-15T04:27:40;96478.00;;;16.50
56286;BMP180;42191;47.562;9.686;2023-05-15T04:30:07;96472.00;;;16.50
56286;BMP180;42191;47.562;9.686;2023-05-15T04:32:34;96469.00;;;16.50
56286;BMP180;42191;47.562;9.686;2023-05-15T04:35:04;96474.00;;;16.50
56286;BMP180;42191;47.562;9.686;2023-05-15T04:37:31;96468.00;;;16.60
56286;BMP180;42191;47.562;9.686;2023-05-15T04:39:57;96471.00;;;16.60
56286;BMP180;42191;47.562;9.686;2023-05-15T04:42:23;96469.00;;;16.60
56286;BMP180;42191;47.562;9.686;2023-05-15T04:44:49;96485.00;;;16.60
56286;BMP180;42191;47.562;9.686;2023-05-15T04:47:16;96486.00;;;16.70
56286;BMP180;42191;47.562;9.686;2023-05-15T04:49:42;96474.00;;;16.70
56286;BMP180;42191;47.562;9.686;2023-05-15T04:52:08;96483.00;;;16.70
56286;BMP180;42191;47.562;9.686;2023-05-15T04:54:34;96484.00;;;16.70
56286;BMP180;42191;47.562;9.686;2023-05-15T04:57:00;96478.00;;;16.80
56286;BMP180;42191;47.562;9.686;2023-05-15T04:59:26;96483.00;;;16.80
56286;BMP180;42191;47.562;9.686;2023-05-15T05:01:53;96486.00;;;16.80
56286;BMP180;42191;47.562;9.686;2023-05-15T05:04:20;96487.00;;;16.80
56286;BMP180;42191;47.562;9.686;2023-05-15T05:06:46;96485.00;;;16.80
56286;BMP180;42191;47.562;9.686;2023-05-15T05:09:12;96498.00;;;16.90
56286;BMP180;42191;47.562;9.686;2023-05-15T05:11:39;96491.00;;;16.90
56286;BMP180;42191;47.562;9.686;2023-05-15T05:14:09;96499.00;;;16.90
56286;BMP180;42191;47.562;9.686;2023-05-15T05:16:35;96490.00;;;16.90
56286;BMP180;42191;47.562;9.686;2023-05-15T05:19:02;96497.00;;;17.00
56286;BMP180;42191;47.562;9.686;2023-05-15T05:21:28;96498.00;;;17.00
56286;BMP180;42191;47.562;9.686;2023-05-15T05:23:54;96499.00;;;17.00
56286;BMP180;42191;47.562;9.686;2023-05-15T05:26:21;96490.00;;;17.00
56286;BMP180;42191;47.562;9.686;2023-05-15T05:28:47;96504.00;;;17.00
56286;BMP180;42191;47.562;9.686;2023-05-15T05:31:13;96500.00;;;17.00
56286;BMP180;42191;47.562;9.686;2023-05-15T05:33:39;96508.00;;;17.10
56286;BMP180;42191;47.562;9.686;2023-05-15T05:36:06;96505.00;;;17.10
56286;BMP180;42191;47.562;9.686;2023-05-15T05:38:32;96498.00;;;17.10
56286;BMP180;42191;47.562;9.686;2023-05-15T05:40:59;96506.00;;;17.10
56286;BMP180;42191;47.562;9.686;2023-05-15T05:43:26;96502.00;;;17.20
56286;BMP180;42191;47.562;9.686;2023-05-15T05:45:52;96502.00;;;17.20
56286;BMP180;42191;47.562;9.686;2023-05-15T05:48:18;96500.00;;;17.20
56286;BMP180;42191;47.562;9.686;2023-05-15T05:50:44;96505.00;;;17.20
56286;BMP180;42191;47.562;9.686;2023-05-15T05:53:10;96515.00;;;17.30
56286;BMP180;42191;47.562;9.686;2023-05-15T05:55:36;96509.00;;;17.30
56286;BMP180;42191;47.562;9.686;2023-05-15T05:58:03;96515.00;;;17.20
56286;BMP180;42191;47.562;9.686;2023-05-15T06:00:29;96514.00;;;17.20
56286;BMP180;42191;47.562;9.686;2023-05-15T06:02:56;96514.00;;;17.20
56286;BMP180;42191;47.562;9.686;2023-05-15T06:05:23;96515.00;;;17.20
56286;BMP180;42191;47.562;9.686;2023-05-15T06:07:51;96517.00;;;17.20
56286;BMP180;42191;47.562;9.686;2023-05-15T06:10:17;96516.00;;;17.20
56286;BMP180;42191;47.562;9.686;2023-05-15T06:12:44;96514.00;;;17.30
56286;BMP180;42191;47.562;9.686;2023-05-15T06:15:10;96514.00;;;17.30
56286;BMP180;42191;47.562;9.686;2023-05-15T06:17:37;96522.00;;;17.30
56286;BMP180;42191;47.562;9.686;2023-05-15T06:20:04;96525.00;;;17.40
56286;BMP180;42191;47.562;9.686;2023-05-15T06:22:37;96508.00;;;17.40
56286;BMP180;42191;47.562;9.686;2023-05-15T06:25:06;96512.00;;;17.40
56286;BMP180;42191;47.562;9.686;2023-05-15T06:27:33;96513.00;;;17.40
56286;BMP180;42191;47.562;9.686;2023-05-15T06:29:59;96529.00;;;17.50
56286;BMP180;42191;47.562;9.686;2023-05-15T06:32:25;96517.00;;;17.40
56286;BMP180;42191;47.562;9.686;2023-05-15T06:34:51;96522.00;;;17.40
56286;BMP180;42191;47.562;9.686;2023-05-15T06:37:17;96526.00;;;17.40
56286;BMP180;42191;47.562;9.686;2023-05-15T06:39:43;96527.00;;;17.50
56286;BMP180;42191;47.562;9.686;2023-05-15T06:42:10;96531.00;;;17.50
56286;BMP180;42191;47.562;9.686;2023-05-15T06:44:36;96531.00;;;17.40
56286;BMP180;42191;47.562;9.686;2023-05-15T06:47:02;96533.00;;;17.50
56286;BMP180;42191;47.562;9.686;2023-05-15T06:49:28;96538.00;;;17.50
56286;BMP180;42191;47.562;9.686;2023-05-15T06:51:54;96528.00;;;17.60
56286;BMP180;42191;47.562;9.686;2023-05-15T06:54:20;96532.00;;;17.60
56286;BMP180;42191;47.562;9.686;2023-05-15T06:56:46;96543.00;;;17.60
56286;BMP180;42191;47.562;9.686;2023-05-15T06:59:12;96540.00;;;17.60
56286;BMP180;42191;47.562;9.686;2023-05-15T07:01:39;96539.00;;;17.60
56286;BMP180;42191;47.562;9.686;2023-05-15T07:04:05;96548.00;;;17.70
56286;BMP180;42191;47.562;9.686;2023-05-15T07:06:31;96534.00;;;17.70
56286;BMP180;42191;47.562;9.686;2023-05-15T07:09:00;96544.00;;;17.70
56286;BMP180;42191;47.562;9.686;2023-05-15T07:11:26;96543.00;;;17.70
56286;BMP180;42191;47.562;9.686;2023-05-15T07:13:54;96543.00;;;17.70
56286;BMP180;42191;47.562;9.686;2023-05-15T07:16:20;96545.00;;;17.70
56286;BMP180;42191;47.562;9.686;2023-05-15T07:18:46;96536.00;;;17.70
56286;BMP180;42191;47.562;9.686;2023-05-15T07:21:13;96538.00;;;17.70
56286;BMP180;42191;47.562;9.686;2023-05-15T07:23:39;96537.00;;;17.70
56286;BMP180;42191;47.562;9.686;2023-05-15T07:26:05;96537.00;;;17.70
56286;BMP180;42191;47.562;9.686;2023-05-15T07:28:31;96550.00;;;17.70
56286;BMP180;42191;47.562;9.686;2023-05-15T07:30:57;96543.00;;;17.80
56286;BMP180;42191;47.562;9.686;2023-05-15T07:33:23;96547.00;;;17.80
56286;BMP180;42191;47.562;9.686;2023-05-15T07:35:50;96554.00;;;17.80
56286;BMP180;42191;47.562;9.686;2023-05-15T07:38:16;96555.00;;;17.80
56286;BMP180;42191;47.562;9.686;2023-05-15T07:40:43;96551.00;;;17.80
56286;BMP180;42191;47.562;9.686;2023-05-15T07:43:09;96557.00;;;17.80
56286;BMP180;42191;47.562;9.686;2023-05-15T07:45:35;96559.00;;;17.80
56286;BMP180;42191;47.562;9.686;2023-05-15T07:48:13;96561.00;;;17.90
56286;BMP180;42191;47.562;9.686;2023-05-15T07:50:39;96560.00;;;17.90
56286;BMP180;42191;47.562;9.686;2023-05-15T07:53:05;96563.00;;;17.90
56286;BMP180;42191;47.562;9.686;2023-05-15T07:55:31;96560.00;;;17.90
56286;BMP180;42191;47.562;9.686;2023-05-15T07:57:58;96562.00;;;17.90
56286;BMP180;42191;47.562;9.686;2023-05-15T08:00:24;96555.00;;;18.00
56286;BMP180;42191;47.562;9.686;2023-05-15T08:02:50;96554.00;;;17.90
56286;BMP180;42191;47.562;9.686;2023-05-15T08:05:16;96554.00;;;17.90
56286;BMP180;42191;47.562;9.686;2023-05-15T08:07:42;96553.00;;;17.90
56286;BMP180;42191;47.562;9.686;2023-05-15T08:10:08;96554.00;;;17.90
56286;BMP180;42191;47.562;9.686;2023-05-15T08:12:35;96558.00;;;17.90
56286;BMP180;42191;47.562;9.686;2023-05-15T08:15:01;96553.00;;;17.90
56286;BMP180;42191;47.562;9.686;2023-05-15T08:17:28;96557.00;;;17.90
56286;BMP180;42191;47.562;9.686;2023-05-15T08:19:55;96547.00;;;17.90
56286;BMP180;42191;47.562;9.686;2023-05-15T08:22:21;96554.00;;;18.00
56286;BMP180;42191;47.562;9.686;2023-05-15T08:24:47;96548.00;;;18.10
56286;BMP180;42191;47.562;9.686;2023-05-15T08:27:13;96551.00;;;18.20
56286;BMP180;42191;47.562;9.686;2023-05-15T08:29:40;96545.00;;;18.20
56286;BMP180;42191;47.562;9.686;2023-05-15T08:32:07;96545.00;;;18.40
56286;BMP180;42191;47.562;9.686;2023-05-15T08:34:33;96551.00;;;18.50
56286;BMP180;42191;47.562;9.686;2023-05-15T08:36:59;96553.00;;;18.60
56286;BMP180;42191;47.562;9.686;2023-05-15T08:39:25;96542.00;;;18.70
56286;BMP180;42191;47.562;9.686;2023-05-15T08:44:18;96555.00;;;19.00
56286;BMP180;42191;47.562;9.686;2023-05-15T08:46:47;96543.00;;;19.10
56286;BMP180;42191;47.562;9.686;2023-05-15T08:49:46;96556.00;;;19.30
56286;BMP180;42191;47.562;9.686;2023-05-15T08:52:16;96547.00;;;19.40
56286;BMP180;42191;47.562;9.686;2023-05-15T08:54:42;96541.00;;;19.60
56286;BMP180;42191;47.562;9.686;2023-05-15T08:57:09;96547.00;;;19.70
56286;BMP180;42191;47.562;9.686;2023-05-15T08:59:36;96544.00;;;19.80
56286;BMP180;42191;47.562;9.686;2023-05-15T09:02:02;96540.00;;;20.00
56286;BMP180;42191;47.562;9.686;2023-05-15T09:04:29;96535.00;;;20.00
56286;BMP180;42191;47.562;9.686;2023-05-15T09:06:57;96541.00;;;20.10
56286;BMP180;42191;47.562;9.686;2023-05-15T09:09:24;96550.00;;;20.20
56286;BMP180;42191;47.562;9.686;2023-05-15T09:11:53;96541.00;;;20.20
56286;BMP180;42191;47.562;9.686;2023-05-15T09:14:19;96539.00;;;20.20
56286;BMP180;42191;47.562;9.686;2023-05-15T09:16:47;96534.00;;;20.30
56286;BMP180;42191;47.562;9.686;2023-05-15T09:19:15;96539.00;;;20.40
56286;BMP180;42191;47.562;9.686;2023-05-15T09:21:42;96541.00;;;20.50
56286;BMP180;42191;47.562;9.686;2023-05-15T09:26:46;96540.00;;;20.80
56286;BMP180;42191;47.562;9.686;2023-05-15T09:29:16;96536.00;;;21.00
56286;BMP180;42191;47.562;9.686;2023-05-15T09:31:45;96526.00;;;21.20
56286;BMP180;42191;47.562;9.686;2023-05-15T09:34:11;96540.00;;;21.40
56286;BMP180;42191;47.562;9.686;2023-05-15T09:36:42;96519.00;;;21.60
56286;BMP180;42191;47.562;9.686;2023-05-15T09:39:09;96522.00;;;21.70
56286;BMP180;42191;47.562;9.686;2023-05-15T09:41:41;96517.00;;;21.90
56286;BMP180;42191;47.562;9.686;2023-05-15T09:44:18;96520.00;;;21.90
56286;BMP180;42191;47.562;9.686;2023-05-15T09:46:45;96515.00;;;21.90
56286;BMP180;42191;47.562;9.686;2023-05-15T09:49:12;96521.00;;;21.90
56286;BMP180;42191;47.562;9.686;2023-05-15T09:51:39;96531.00;;;22.00
56286;BMP180;42191;47.562;9.686;2023-05-15T09:54:05;96523.00;;;22.10
56286;BMP180;42191;47.562;9.686;2023-05-15T09:56:32;96522.00;;;22.10
56286;BMP180;42191;47.562;9.686;2023-05-15T09:58:59;96527.00;;;22.20
56286;BMP180;42191;47.562;9.686;2023-05-15T10:01:25;96526.00;;;22.20
56286;BMP180;42191;47.562;9.686;2023-05-15T10:03:59;96529.00;;;22.30
56286;BMP180;42191;47.562;9.686;2023-05-15T10:06:26;96524.00;;;22.30
56286;BMP180;42191;47.562;9.686;2023-05-15T10:08:55;96528.00;;;22.30
56286;BMP180;42191;47.562;9.686;2023-05-15T10:11:22;96529.00;;;22.30
56286;BMP180;42191;47.562;9.686;2023-05-15T10:13:49;96532.00;;;22.20
56286;BMP180;42191;47.562;9.686;2023-05-15T10:16:19;96528.00;;;22.20
56286;BMP180;42191;47.562;9.686;2023-05-15T10:18:47;96538.00;;;22.10
56286;BMP180;42191;47.562;9.686;2023-05-15T10:21:16;96536.00;;;22.10
56286;BMP180;42191;47.562;9.686;2023-05-15T10:23:45;96537.00;;;22.00
56286;BMP180;42191;47.562;9.686;2023-05-15T10:26:21;96533.00;;;21.90
56286;BMP180;42191;47.562;9.686;2023-05-15T10:28:48;96527.00;;;21.80
56286;BMP180;42191;47.562;9.686;2023-05-15T10:31:17;96522.00;;;21.80
56286;BMP180;42191;47.562;9.686;2023-05-15T10:33:43;96519.00;;;21.70
56286;BMP180;42191;47.562;9.686;2023-05-15T10:36:10;96526.00;;;21.70
56286;BMP180;42191;47.562;9.686;2023-05-15T10:38:37;96511.00;;;21.70
56286;BMP180;42191;47.562;9.686;2023-05-15T10:41:03;96515.00;;;21.70
56286;BMP180;42191;47.562;9.686;2023-05-15T10:43:30;96508.00;;;21.70
56286;BMP180;42191;47.562;9.686;2023-05-15T10:45:57;96513.00;;;21.80
56286;BMP180;42191;47.562;9.686;2023-05-15T10:48:23;96504.00;;;21.80
56286;BMP180;42191;47.562;9.686;2023-05-15T10:50:50;96505.00;;;21.90
56286;BMP180;42191;47.562;9.686;2023-05-15T10:53:17;96518.00;;;22.00
56286;BMP180;42191;47.562;9.686;2023-05-15T10:55:44;96512.00;;;22.10
56286;BMP180;42191;47.562;9.686;2023-05-15T10:58:11;96511.00;;;22.20
56286;BMP180;42191;47.562;9.686;2023-05-15T11:00:42;96499.00;;;22.30
56286;BMP180;42191;47.562;9.686;2023-05-15T11:03:12;96490.00;;;22.40
56286;BMP180;42191;47.562;9.686;2023-05-15T11:06:06;96485.00;;;22.40
56286;BMP180;42191;47.562;9.686;2023-05-15T11:08:35;96474.00;;;22.50
56286;BMP180;42191;47.562;9.686;2023-05-15T11:11:02;96471.00;;;22.50
56286;BMP180;42191;47.562;9.686;2023-05-15T11:19:36;96460.00;;;22.30
56286;BMP180;42191;47.562;9.686;2023-05-15T11:24:29;96469.00;;;22.20
56286;BMP180;42191;47.562;9.686;2023-05-15T11:27:05;96470.00;;;22.10
56286;BMP180;42191;47.562;9.686;2023-05-15T11:29:31;96465.00;;;22.10
56286;BMP180;42191;47.562;9.686;2023-05-15T11:31:57;96470.00;;;22.00
56286;BMP180;42191;47.562;9.686;2023-05-15T11:34:32;96471.00;;;21.90
56286;BMP180;42191;47.562;9.686;2023-05-15T11:36:59;96467.00;;;21.80
56286;BMP180;42191;47.562;9.686;2023-05-15T11:39:26;96460.00;;;21.80
56286;BMP180;42191;47.562;9.686;2023-05-15T11:41:53;96473.00;;;21.80
56286;BMP180;42191;47.562;9.686;2023-05-15T11:44:23;96462.00;;;21.80
56286;BMP180;42191;47.562;9.686;2023-05-15T11:46:50;96450.00;;;21.80
56286;BMP180;42191;47.562;9.686;2023-05-15T11:49:18;96456.00;;;21.80
56286;BMP180;42191;47.562;9.686;2023-05-15T11:51:47;96460.00;;;21.80
56286;BMP180;42191;47.562;9.686;2023-05-15T11:54:13;96460.00;;;21.80
56286;BMP180;42191;47.562;9.686;2023-05-15T11:56:45;96451.00;;;21.80
56286;BMP180;42191;47.562;9.686;2023-05-15T11:59:12;96456.00;;;21.90
56286;BMP180;42191;47.562;9.686;2023-05-15T12:01:43;96461.00;;;21.90
56286;BMP180;42191;47.562;9.686;2023-05-15T12:04:16;96453.00;;;22.00
56286;BMP180;42191;47.562;9.686;2023-05-15T12:06:42;96451.00;;;21.90
56286;BMP180;42191;47.562;9.686;2023-05-15T12:09:13;96453.00;;;21.90
56286;BMP180;42191;47.562;9.686;2023-05-15T12:11:48;96452.00;;;21.90
56286;BMP180;42191;47.562;9.686;2023-05-15T12:14:15;96458.00;;;21.90
56286;BMP180;42191;47.562;9.686;2023-05-15T12:16:41;96456.00;;;21.90
56286;BMP180;42191;47.562;9.686;2023-05-15T12:19:07;96459.00;;;21.90
56286;BMP180;42191;47.562;9.686;2023-05-15T12:21:35;96454.00;;;21.90
56286;BMP180;42191;47.562;9.686;2023-05-15T12:24:10;96447.00;;;21.80
56286;BMP180;42191;47.562;9.686;2023-05-15T12:26:37;96452.00;;;21.80
56286;BMP180;42191;47.562;9.686;2023-05-15T12:29:05;96452.00;;;21.80
56286;BMP180;42191;47.562;9.686;2023-05-15T12:31:33;96448.00;;;21.90
56286;BMP180;42191;47.562;9.686;2023-05-15T12:34:00;96466.00;;;22.00
56286;BMP180;42191;47.562;9.686;2023-05-15T12:36:27;96454.00;;;22.10
56286;BMP180;42191;47.562;9.686;2023-05-15T12:38:57;96459.00;;;22.20
56286;BMP180;42191;47.562;9.686;2023-05-15T12:41:29;96458.00;;;22.20
56286;BMP180;42191;47.562;9.686;2023-05-15T12:43:55;96452.00;;;22.30
56286;BMP180;42191;47.562;9.686;2023-05-15T12:46:24;96449.00;;;22.30
56286;BMP180;42191;47.562;9.686;2023-05-15T12:48:51;96450.00;;;22.40
56286;BMP180;42191;47.562;9.686;2023-05-15T12:51:17;96446.00;;;22.40
56286;BMP180;42191;47.562;9.686;2023-05-15T12:53:44;96443.00;;;22.40
56286;BMP180;42191;47.562;9.686;2023-05-15T12:56:15;96442.00;;;22.50
56286;BMP180;42191;47.562;9.686;2023-05-15T12:58:45;96444.00;;;22.60
56286;BMP180;42191;47.562;9.686;2023-05-15T13:01:19;96447.00;;;22.70
56286;BMP180;42191;47.562;9.686;2023-05-15T13:03:46;96441.00;;;22.70
56286;BMP180;42191;47.562;9.686;2023-05-15T13:06:14;96437.00;;;22.90
56286;BMP180;42191;47.562;9.686;2023-05-15T13:08:41;96441.00;;;23.20
56286;BMP180;42191;47.562;9.686;2023-05-15T13:11:11;96428.00;;;23.80
56286;BMP180;42191;47.562;9.686;2023-05-15T13:13:49;96429.00;;;24.60
56286;BMP180;42191;47.562;9.686;2023-05-15T13:16:25;96434.00;;;25.40
56286;BMP180;42191;47.562;9.686;2023-05-15T13:18:55;96437.00;;;26.30
56286;BMP180;42191;47.562;9.686;2023-05-15T13:21:21;96440.00;;;27.00
56286;BMP180;42191;47.562;9.686;2023-05-15T13:23:49;96433.00;;;27.80
56286;BMP180;42191;47.562;9.686;2023-05-15T13:26:15;96430.00;;;28.50
56286;BMP180;42191;47.562;9.686;2023-05-15T13:28:42;96433.00;;;29.30
56286;BMP180;42191;47.562;9.686;2023-05-15T13:31:08;96434.00;;;30.00
56286;BMP180;42191;47.562;9.686;2023-05-15T13:33:34;96446.00;;;30.70
56286;BMP180;42191;47.562;9.686;2023-05-15T13:36:01;96440.00;;;31.20
56286;BMP180;42191;47.562;9.686;2023-05-15T13:38:27;96449.00;;;31.90
56286;BMP180;42191;47.562;9.686;2023-05-15T13:40:53;96436.00;;;32.50
56286;BMP180;42191;47.562;9.686;2023-05-15T13:43:19;96442.00;;;33.10
56286;BMP180;42191;47.562;9.686;2023-05-15T13:45:45;96440.00;;;33.80
56286;BMP180;42191;47.562;9.686;2023-05-15T13:48:11;96428.00;;;34.40
56286;BMP180;42191;47.562;9.686;2023-05-15T13:50:37;96422.00;;;35.00
56286;BMP180;42191;47.562;9.686;2023-05-15T13:53:04;96428.00;;;35.70
56286;BMP180;42191;47.562;9.686;2023-05-15T13:55:31;96430.00;;;36.40
56286;BMP180;42191;47.562;9.686;2023-05-15T13:57:57;96424.00;;;37.00
56286;BMP180;42191;47.562;9.686;2023-05-15T14:00:23;96424.00;;;37.60
56286;BMP180;42191;47.562;9.686;2023-05-15T14:02:49;96430.00;;;37.90
56286;BMP180;42191;47.562;9.686;2023-05-15T14:05:16;96426.00;;;38.00
56286;BMP180;42191;47.562;9.686;2023-05-15T14:07:43;96427.00;;;37.80
56286;BMP180;42191;47.562;9.686;2023-05-15T14:10:10;96426.00;;;37.50
56286;BMP180;42191;47.562;9.686;2023-05-15T14:12:36;96427.00;;;36.90
56286;BMP180;42191;47.562;9.686;2023-05-15T14:15:03;96429.00;;;36.30
56286;BMP180;42191;47.562;9.686;2023-05-15T14:17:29;96430.00;;;35.80
56286;BMP180;42191;47.562;9.686;2023-05-15T14:19:55;96430.00;;;35.20
56286;BMP180;42191;47.562;9.686;2023-05-15T14:22:21;96430.00;;;34.70
56286;BMP180;42191;47.562;9.686;2023-05-15T14:24:50;96435.00;;;34.20
56286;BMP180;42191;47.562;9.686;2023-05-15T14:27:16;96426.00;;;33.80
56286;BMP180;42191;47.562;9.686;2023-05-15T14:29:42;96423.00;;;33.50
56286;BMP180;42191;47.562;9.686;2023-05-15T14:32:09;96432.00;;;33.30
56286;BMP180;42191;47.562;9.686;2023-05-15T14:34:35;96437.00;;;33.00
56286;BMP180;42191;47.562;9.686;2023-05-15T14:37:02;96445.00;;;32.60